sensor_id;sensor_type;location;lat;lon;timestamp;temperature;humidity
3198;DHT22;1611;49.394;11.136;2023-11-18T00:02:07;6.00;63.40
3198;DHT22;1611;49.394;11.136;2023-11-18T00:04:37;6.00;63.80
3198;DHT22;1611;49.394;11.136;2023-11-18T00:07:04;5.90;63.50
3198;DHT22;1611;49.394;11.136;2023-11-18T00:09:31;5.80;63.50
3198;DHT22;1611;49.394;11.136;2023-11-18T00:11:57;5.80;63.30
3198;DHT22;1611;49.394;11.136;2023-11-18T00:14:24;5.80;63.40
3198;DHT22;1611;49.394;11.136;2023-11-18T00:16:51;5.90;63.60
3198;DHT22;1611;49.394;11.136;2023-11-18T00:19:18;5.90;62.80
3198;DHT22;1611;49.394;11.136;2023-11-18T00:21:46;5.70;63.20
3198;DHT22;1611;49.394;11.136;2023-11-18T00:24:12;5.80;64.00
3198;DHT22;1611;49.394;11.136;2023-11-18T00:26:39;5.80;64.10
3198;DHT22;1611;49.394;11.136;2023-11-18T00:29:06;5.90;64.40
3198;DHT22;1611;49.394;11.136;2023-11-18T00:31:34;6.00;64.00
3198;DHT22;1611;49.394;11.136;2023-11-18T00:34:00;5.90;63.60
3198;DHT22;1611;49.394;11.136;2023-11-18T00:36:27;5.90;64.20
3198;DHT22;1611;49.394;11.136;2023-11-18T00:38:56;5.90;64.80
3198;DHT22;1611;49.394;11.136;2023-11-18T00:41:23;6.00;64.60
3198;DHT22;1611;49.394;11.136;2023-11-18T00:43:49;5.90;64.70
3198;DHT22;1611;49.394;11.136;2023-11-18T00:46:16;5.90;65.70
3198;DHT22;1611;49.394;11.136;2023-11-18T00:48:43;5.90;65.00
3198;DHT22;1611;49.394;11.136;2023-11-18T00:51:10;5.90;64.90
3198;DHT22;1611;49.394;11.136;2023-11-18T00:53:36;5.90;64.90
3198;DHT22;1611;49.394;11.136;2023-11-18T00:56:05;5.80;64.50
3198;DHT22;1611;49.394;11.136;2023-11-18T00:58:35;5.90;64.80
3198;DHT22;1611;49.394;11.136;2023-11-18T01:01:05;5.90;65.10
3198;DHT22;1611;49.394;11.136;2023-11-18T01:03:32;6.00;65.10
3198;DHT22;1611;49.394;11.136;2023-11-18T01:06:00;5.90;64.70
3198;DHT22;1611;49.394;11.136;2023-11-18T01:08:27;5.90;64.50
3198;DHT22;1611;49.394;11.136;2023-11-18T01:10:54;5.90;64.70
3198;DHT22;1611;49.394;11.136;2023-11-18T01:13:22;5.90;64.70
3198;DHT22;1611;49.394;11.136;2023-11-18T01:15:49;5.90;65.60
3198;DHT22;1611;49.394;11.136;2023-11-18T01:18:15;5.90;65.60
3198;DHT22;1611;49.394;11.136;2023-11-18T01:20:43;6.00;65.10
3198;DHT22;1611;49.394;11.136;2023-11-18T01:23:10;5.90;65.40
3198;DHT22;1611;49.394;11.136;2023-11-18T01:25:37;5.90;65.40
3198;DHT22;1611;49.394;11.136;2023-11-18T01:28:05;5.90;64.90
3198;DHT22;1611;49.394;11.136;2023-11-18T01:30:33;5.80;63.80
3198;DHT22;1611;49.394;11.136;2023-11-18T01:33:00;5.80;64.60
3198;DHT22;1611;49.394;11.136;2023-11-18T01:35:27;5.80;65.20
3198;DHT22;1611;49.394;11.136;2023-11-18T01:37:54;5.90;64.90
3198;DHT22;1611;49.394;11.136;2023-11-18T01:40:21;5.90;65.50
3198;DHT22;1611;49.394;11.136;2023-11-18T01:42:48;5.80;65.50
3198;DHT22;1611;49.394;11.136;2023-11-18T01:45:14;5.80;65.60
3198;DHT22;1611;49.394;11.136;2023-11-18T01:47:44;5.70;65.30
3198;DHT22;1611;49.394;11.136;2023-11-18T01:50:14;5.50;65.10
3198;DHT22;1611;49.394;11.136;2023-11-18T01:52:41;5.50;66.00
3198;DHT22;1611;49.394;11.136;2023-11-18T01:55:08;5.40;64.90
3198;DHT22;1611;49.394;11.136;2023-11-18T01:57:35;5.20;65.90
3198;DHT22;1611;49.394;11.136;2023-11-18T02:00:03;5.20;66.20
3198;DHT22;1611;49.394;11.136;2023-11-18T02:02:31;5.20;66.30
3198;DHT22;1611;49.394;11.136;2023-11-18T02:05:01;5.20;66.20
3198;DHT22;1611;49.394;11.136;2023-11-18T02:07:28;5.10;66.40
3198;DHT22;1611;49.394;11.136;2023-11-18T02:09:55;5.10;67.00
3198;DHT22;1611;49.394;11.136;2023-11-18T02:12:27;5.20;67.00
3198;DHT22;1611;49.394;11.136;2023-11-18T02:14:57;5.10;66.80
3198;DHT22;1611;49.394;11.136;2023-11-18T02:17:25;5.00;66.70
3198;DHT22;1611;49.394;11.136;2023-11-18T02:19:56;5.00;67.30
3198;DHT22;1611;49.394;11.136;2023-11-18T02:22:25;5.00;67.60
3198;DHT22;1611;49.394;11.136;2023-11-18T02:24:53;4.90;67.70
3198;DHT22;1611;49.394;11.136;2023-11-18T02:27:22;5.10;68.00
3198;DHT22;1611;49.394;11.136;2023-11-18T02:29:51;4.90;67.90
3198;DHT22;1611;49.394;11.136;2023-11-18T02:32:20;4.90;67.70
3198;DHT22;1611;49.394;11.136;2023-11-18T02:37:36;4.80;67.90
3198;DHT22;1611;49.394;11.136;2023-11-18T02:40:05;4.80;68.20
3198;DHT22;1611;49.394;11.136;2023-11-18T02:42:39;4.70;68.20
3198;DHT22;1611;49.394;11.136;2023-11-18T02:45:07;4.50;69.20
3198;DHT22;1611;49.394;11.136;2023-11-18T02:47:38;4.50;69.20
3198;DHT22;1611;49.394;11.136;2023-11-18T02:50:06;4.60;68.90
3198;DHT22;1611;49.394;11.136;2023-11-18T02:52:36;4.60;68.60
3198;DHT22;1611;49.394;11.136;2023-11-18T02:55:03;4.60;68.10
3198;DHT22;1611;49.394;11.136;2023-11-18T02:57:32;4.60;67.50
3198;DHT22;1611;49.394;11.136;2023-11-18T03:00:00;4.60;67.70
3198;DHT22;1611;49.394;11.136;2023-11-18T03:02:28;4.50;67.60
3198;DHT22;1611;49.394;11.136;2023-11-18T03:04:56;4.40;67.60
3198;DHT22;1611;49.394;11.136;2023-11-18T03:07:23;4.40;67.80
3198;DHT22;1611;49.394;11.136;2023-11-18T03:09:50;4.40;67.60
3198;DHT22;1611;49.394;11.136;2023-11-18T03:12:16;4.50;67.70
3198;DHT22;1611;49.394;11.136;2023-11-18T03:14:43;4.50;67.90
3198;DHT22;1611;49.394;11.136;2023-11-18T03:17:11;4.50;67.70
3198;DHT22;1611;49.394;11.136;2023-11-18T03:19:38;4.60;67.30
3198;DHT22;1611;49.394;11.136;2023-11-18T03:22:07;4.60;67.30
3198;DHT22;1611;49.394;11.136;2023-11-18T03:24:33;4.60;67.20
3198;DHT22;1611;49.394;11.136;2023-11-18T03:27:00;4.60;67.20
3198;DHT22;1611;49.394;11.136;2023-11-18T03:29:27;4.60;67.20
3198;DHT22;1611;49.394;11.136;2023-11-18T03:31:54;4.60;67.90
3198;DHT22;1611;49.394;11.136;2023-11-18T03:34:22;4.70;68.60
3198;DHT22;1611;49.394;11.136;2023-11-18T03:36:49;4.60;67.20
3198;DHT22;1611;49.394;11.136;2023-11-18T03:39:16;4.70;66.90
3198;DHT22;1611;49.394;11.136;2023-11-18T03:41:43;4.70;66.50
3198;DHT22;1611;49.394;11.136;2023-11-18T03:44:11;4.80;66.40
3198;DHT22;1611;49.394;11.136;2023-11-18T03:46:38;4.80;66.20
3198;DHT22;1611;49.394;11.136;2023-11-18T03:49:06;4.80;65.90
3198;DHT22;1611;49.394;11.136;2023-11-18T03:51:34;4.80;66.00
3198;DHT22;1611;49.394;11.136;2023-11-18T03:54:01;4.70;66.10
3198;DHT22;1611;49.394;11.136;2023-11-18T03:56:28;4.60;66.20
3198;DHT22;1611;49.394;11.136;2023-11-18T03:58:54;4.60;66.70
3198;DHT22;1611;49.394;11.136;2023-11-18T04:01:21;4.50;67.40
3198;DHT22;1611;49.394;11.136;2023-11-18T04:03:48;4.50;67.70
3198;DHT22;1611;49.394;11.136;2023-11-18T04:06:16;4.60;67.60
3198;DHT22;1611;49.394;11.136;2023-11-18T04:08:44;4.60;67.90
3198;DHT22;1611;49.394;11.136;2023-11-18T04:11:12;4.50;68.00
3198;DHT22;1611;49.394;11.136;2023-11-18T04:13:39;4.60;68.30
3198;DHT22;1611;49.394;11.136;2023-11-18T04:16:09;4.60;68.40
3198;DHT22;1611;49.394;11.136;2023-11-18T04:18:38;4.60;68.70
3198;DHT22;1611;49.394;11.136;2023-11-18T04:21:05;4.60;68.20
3198;DHT22;1611;49.394;11.136;2023-11-18T04:23:32;4.50;67.90
3198;DHT22;1611;49.394;11.136;2023-11-18T04:26:02;4.50;68.00
3198;DHT22;1611;49.394;11.136;2023-11-18T04:28:28;4.50;68.60
3198;DHT22;1611;49.394;11.136;2023-11-18T04:30:55;4.40;68.40
3198;DHT22;1611;49.394;11.136;2023-11-18T04:33:22;4.50;68.50
3198;DHT22;1611;49.394;11.136;2023-11-18T04:35:50;4.50;68.60
3198;DHT22;1611;49.394;11.136;2023-11-18T04:38:17;4.50;68.60
3198;DHT22;1611;49.394;11.136;2023-11-18T04:40:44;4.60;68.40
3198;DHT22;1611;49.394;11.136;2023-11-18T04:43:12;4.60;68.00
3198;DHT22;1611;49.394;11.136;2023-11-18T04:45:40;4.50;67.80
3198;DHT22;1611;49.394;11.136;2023-11-18T04:48:07;4.60;67.70
3198;DHT22;1611;49.394;11.136;2023-11-18T04:50:33;4.50;67.50
3198;DHT22;1611;49.394;11.136;2023-11-18T04:53:00;4.50;67.60
3198;DHT22;1611;49.394;11.136;2023-11-18T04:55:28;4.50;67.20
3198;DHT22;1611;49.394;11.136;2023-11-18T04:57:55;4.50;66.30
3198;DHT22;1611;49.394;11.136;2023-11-18T05:00:23;4.50;65.80
3198;DHT22;1611;49.394;11.136;2023-11-18T05:02:50;4.50;65.70
3198;DHT22;1611;49.394;11.136;2023-11-18T05:05:17;4.40;65.70
3198;DHT22;1611;49.394;11.136;2023-11-18T05:07:44;4.40;65.70
3198;DHT22;1611;49.394;11.136;2023-11-18T05:10:11;4.30;66.00
3198;DHT22;1611;49.394;11.136;2023-11-18T05:12:38;4.40;65.90
3198;DHT22;1611;49.394;11.136;2023-11-18T05:15:06;4.30;65.60
3198;DHT22;1611;49.394;11.136;2023-11-18T05:17:35;4.30;65.80
3198;DHT22;1611;49.394;11.136;2023-11-18T05:20:02;4.20;66.40
3198;DHT22;1611;49.394;11.136;2023-11-18T05:22:29;4.00;66.60
3198;DHT22;1611;49.394;11.136;2023-11-18T05:24:56;4.00;66.80
3198;DHT22;1611;49.394;11.136;2023-11-18T05:27:23;3.90;67.00
3198;DHT22;1611;49.394;11.136;2023-11-18T05:29:52;3.70;67.40
3198;DHT22;1611;49.394;11.136;2023-11-18T05:32:20;3.70;67.20
3198;DHT22;1611;49.394;11.136;2023-11-18T05:34:50;3.60;67.70
3198;DHT22;1611;49.394;11.136;2023-11-18T05:37:19;3.60;68.30
3198;DHT22;1611;49.394;11.136;2023-11-18T05:39:46;3.60;68.80
3198;DHT22;1611;49.394;11.136;2023-11-18T05:42:14;3.50;69.70
3198;DHT22;1611;49.394;11.136;2023-11-18T05:44:41;3.50;70.70
3198;DHT22;1611;49.394;11.136;2023-11-18T05:47:08;3.50;71.20
3198;DHT22;1611;49.394;11.136;2023-11-18T05:49:37;3.60;71.70
3198;DHT22;1611;49.394;11.136;2023-11-18T05:52:05;3.60;71.80
3198;DHT22;1611;49.394;11.136;2023-11-18T05:54:33;3.70;71.40
3198;DHT22;1611;49.394;11.136;2023-11-18T05:57:00;3.70;70.80
3198;DHT22;1611;49.394;11.136;2023-11-18T05:59:27;3.70;70.20
3198;DHT22;1611;49.394;11.136;2023-11-18T06:01:53;3.80;69.50
3198;DHT22;1611;49.394;11.136;2023-11-18T06:04:22;3.70;69.30
3198;DHT22;1611;49.394;11.136;2023-11-18T06:06:49;3.70;69.60
3198;DHT22;1611;49.394;11.136;2023-11-18T06:09:17;3.70;69.70
3198;DHT22;1611;49.394;11.136;2023-11-18T06:11:46;3.70;69.90
3198;DHT22;1611;49.394;11.136;2023-11-18T06:14:15;3.80;69.60
3198;DHT22;1611;49.394;11.136;2023-11-18T06:16:42;3.90;69.20
3198;DHT22;1611;49.394;11.136;2023-11-18T06:19:09;4.00;68.70
3198;DHT22;1611;49.394;11.136;2023-11-18T06:21:36;4.10;67.90
3198;DHT22;1611;49.394;11.136;2023-11-18T06:24:03;4.10;67.80
3198;DHT22;1611;49.394;11.136;2023-11-18T06:26:32;4.10;67.50
3198;DHT22;1611;49.394;11.136;2023-11-18T06:29:01;4.20;67.00
3198;DHT22;1611;49.394;11.136;2023-11-18T06:31:29;4.20;67.10
3198;DHT22;1611;49.394;11.136;2023-11-18T06:33:56;4.20;66.80
3198;DHT22;1611;49.394;11.136;2023-11-18T06:36:23;4.20;66.90
3198;DHT22;1611;49.394;11.136;2023-11-18T06:38:52;4.20;67.00
3198;DHT22;1611;49.394;11.136;2023-11-18T06:41:22;4.20;67.00
3198;DHT22;1611;49.394;11.136;2023-11-18T06:43:52;4.20;66.80
3198;DHT22;1611;49.394;11.136;2023-11-18T06:46:27;4.20;66.60
3198;DHT22;1611;49.394;11.136;2023-11-18T06:48:57;4.20;66.50
3198;DHT22;1611;49.394;11.136;2023-11-18T06:51:25;4.20;66.10
3198;DHT22;1611;49.394;11.136;2023-11-18T06:53:53;4.20;65.80
3198;DHT22;1611;49.394;11.136;2023-11-18T06:56:20;4.30;65.90
3198;DHT22;1611;49.394;11.136;2023-11-18T06:58:47;4.20;66.00
3198;DHT22;1611;49.394;11.136;2023-11-18T07:01:16;4.20;66.00
3198;DHT22;1611;49.394;11.136;2023-11-18T07:03:44;4.20;66.10
3198;DHT22;1611;49.394;11.136;2023-11-18T07:06:11;4.20;66.10
3198;DHT22;1611;49.394;11.136;2023-11-18T07:08:39;4.30;66.30
3198;DHT22;1611;49.394;11.136;2023-11-18T07:11:06;4.20;66.30
3198;DHT22;1611;49.394;11.136;2023-11-18T07:13:33;4.20;66.60
3198;DHT22;1611;49.394;11.136;2023-11-18T07:16:00;4.40;67.70
3198;DHT22;1611;49.394;11.136;2023-11-18T07:18:30;4.30;66.90
3198;DHT22;1611;49.394;11.136;2023-11-18T07:20:58;4.40;67.20
3198;DHT22;1611;49.394;11.136;2023-11-18T07:23:25;4.50;67.40
3198;DHT22;1611;49.394;11.136;2023-11-18T07:25:52;4.50;67.10
3198;DHT22;1611;49.394;11.136;2023-11-18T07:28:19;4.50;67.10
3198;DHT22;1611;49.394;11.136;2023-11-18T07:30:47;4.50;66.80
3198;DHT22;1611;49.394;11.136;2023-11-18T07:33:14;4.60;66.90
3198;DHT22;1611;49.394;11.136;2023-11-18T07:35:43;4.70;66.80
3198;DHT22;1611;49.394;11.136;2023-11-18T07:38:12;4.70;66.60
3198;DHT22;1611;49.394;11.136;2023-11-18T07:40:39;4.90;66.20
3198;DHT22;1611;49.394;11.136;2023-11-18T07:43:11;4.90;66.30
3198;DHT22;1611;49.394;11.136;2023-11-18T07:45:38;5.00;66.50
3198;DHT22;1611;49.394;11.136;2023-11-18T07:48:06;5.00;66.50
3198;DHT22;1611;49.394;11.136;2023-11-18T07:50:33;5.00;67.10
3198;DHT22;1611;49.394;11.136;2023-11-18T07:53:02;5.10;67.50
3198;DHT22;1611;49.394;11.136;2023-11-18T07:55:28;5.30;67.40
3198;DHT22;1611;49.394;11.136;2023-11-18T07:57:55;5.40;67.30
3198;DHT22;1611;49.394;11.136;2023-11-18T08:00:22;5.40;67.60
3198;DHT22;1611;49.394;11.136;2023-11-18T08:02:50;5.50;67.30
3198;DHT22;1611;49.394;11.136;2023-11-18T08:05:19;5.60;67.50
3198;DHT22;1611;49.394;11.136;2023-11-18T08:07:48;5.80;67.50
3198;DHT22;1611;49.394;11.136;2023-11-18T08:10:16;6.00;66.80
3198;DHT22;1611;49.394;11.136;2023-11-18T08:12:44;6.10;66.00
3198;DHT22;1611;49.394;11.136;2023-11-18T08:15:12;6.20;65.80
3198;DHT22;1611;49.394;11.136;2023-11-18T08:17:39;6.30;65.20
3198;DHT22;1611;49.394;11.136;2023-11-18T08:20:06;6.40;64.10
3198;DHT22;1611;49.394;11.136;2023-11-18T08:22:39;6.40;64.00
3198;DHT22;1611;49.394;11.136;2023-11-18T08:25:07;6.50;64.30
3198;DHT22;1611;49.394;11.136;2023-11-18T08:27:35;6.50;64.10
3198;DHT22;1611;49.394;11.136;2023-11-18T08:30:02;6.50;63.90
3198;DHT22;1611;49.394;11.136;2023-11-18T08:32:31;6.60;64.40
3198;DHT22;1611;49.394;11.136;2023-11-18T08:34:58;6.60;63.70
3198;DHT22;1611;49.394;11.136;2023-11-18T08:37:25;6.70;63.70
3198;DHT22;1611;49.394;11.136;2023-11-18T08:39:53;6.60;63.80
3198;DHT22;1611;49.394;11.136;2023-11-18T08:42:20;6.60;64.00
3198;DHT22;1611;49.394;11.136;2023-11-18T08:44:49;6.60;63.90
3198;DHT22;1611;49.394;11.136;2023-11-18T08:47:15;6.70;64.10
3198;DHT22;1611;49.394;11.136;2023-11-18T08:49:43;6.70;64.20
3198;DHT22;1611;49.394;11.136;2023-11-18T08:52:11;6.80;64.00
3198;DHT22;1611;49.394;11.136;2023-11-18T08:54:38;6.80;64.30
3198;DHT22;1611;49.394;11.136;2023-11-18T08:57:25;6.90;64.30
3198;DHT22;1611;49.394;11.136;2023-11-18T08:59:53;7.10;63.90
3198;DHT22;1611;49.394;11.136;2023-11-18T09:02:24;7.10;64.20
3198;DHT22;1611;49.394;11.136;2023-11-18T09:04:51;7.10;63.00
3198;DHT22;1611;49.394;11.136;2023-11-18T09:07:20;7.10;62.80
3198;DHT22;1611;49.394;11.136;2023-11-18T09:09:47;7.20;62.70
3198;DHT22;1611;49.394;11.136;2023-11-18T09:12:18;7.20;62.70
3198;DHT22;1611;49.394;11.136;2023-11-18T09:14:45;7.30;62.20
3198;DHT22;1611;49.394;11.136;2023-11-18T09:17:14;7.40;61.80
3198;DHT22;1611;49.394;11.136;2023-11-18T09:19:41;7.50;61.50
3198;DHT22;1611;49.394;11.136;2023-11-18T09:22:08;7.50;61.20
3198;DHT22;1611;49.394;11.136;2023-11-18T09:24:38;7.60;60.70
3198;DHT22;1611;49.394;11.136;2023-11-18T09:27:05;7.60;61.00
3198;DHT22;1611;49.394;11.136;2023-11-18T09:29:32;7.90;60.70
3198;DHT22;1611;49.394;11.136;2023-11-18T09:31:59;7.90;60.10
3198;DHT22;1611;49.394;11.136;2023-11-18T09:34:32;7.90;59.00
3198;DHT22;1611;49.394;11.136;2023-11-18T09:36:59;7.80;58.90
3198;DHT22;1611;49.394;11.136;2023-11-18T09:39:26;7.90;59.30
3198;DHT22;1611;49.394;11.136;2023-11-18T09:42:04;7.90;59.40
3198;DHT22;1611;49.394;11.136;2023-11-18T09:44:35;8.00;59.50
3198;DHT22;1611;49.394;11.136;2023-11-18T09:47:07;8.10;59.20
3198;DHT22;1611;49.394;11.136;2023-11-18T09:49:40;8.00;58.20
3198;DHT22;1611;49.394;11.136;2023-11-18T09:52:15;8.10;58.80
3198;DHT22;1611;49.394;11.136;2023-11-18T09:54:49;8.10;58.80
3198;DHT22;1611;49.394;11.136;2023-11-18T09:57:26;8.00;59.00
3198;DHT22;1611;49.394;11.136;2023-11-18T09:59:58;8.20;59.30
3198;DHT22;1611;49.394;11.136;2023-11-18T10:02:38;8.30;59.40
3198;DHT22;1611;49.394;11.136;2023-11-18T10:05:09;8.50;59.00
3198;DHT22;1611;49.394;11.136;2023-11-18T10:07:38;8.70;57.80
3198;DHT22;1611;49.394;11.136;2023-11-18T10:10:07;8.90;57.00
3198;DHT22;1611;49.394;11.136;2023-11-18T10:12:40;9.10;55.50
3198;DHT22;1611;49.394;11.136;2023-11-18T10:15:08;9.20;54.30
3198;DHT22;1611;49.394;11.136;2023-11-18T10:17:38;9.30;53.90
3198;DHT22;1611;49.394;11.136;2023-11-18T10:20:21;9.40;53.60
3198;DHT22;1611;49.394;11.136;2023-11-18T10:23:05;9.60;53.60
3198;DHT22;1611;49.394;11.136;2023-11-18T10:25:35;9.80;53.00
3198;DHT22;1611;49.394;11.136;2023-11-18T10:28:06;9.90;50.90
3198;DHT22;1611;49.394;11.136;2023-11-18T10:30:42;9.80;51.30
3198;DHT22;1611;49.394;11.136;2023-11-18T10:33:14;9.90;51.00
3198;DHT22;1611;49.394;11.136;2023-11-18T10:35:49;9.90;50.00
3198;DHT22;1611;49.394;11.136;2023-11-18T10:38:17;9.90;50.70
3198;DHT22;1611;49.394;11.136;2023-11-18T10:40:44;9.90;51.40
3198;DHT22;1611;49.394;11.136;2023-11-18T10:43:11;9.90;51.30
3198;DHT22;1611;49.394;11.136;2023-11-18T10:45:41;9.90;50.40
3198;DHT22;1611;49.394;11.136;2023-11-18T10:48:08;9.80;51.10
3198;DHT22;1611;49.394;11.136;2023-11-18T10:50:35;9.80;50.90
3198;DHT22;1611;49.394;11.136;2023-11-18T10:53:03;9.60;51.50
3198;DHT22;1611;49.394;11.136;2023-11-18T10:55:36;9.60;51.50
3198;DHT22;1611;49.394;11.136;2023-11-18T10:58:04;9.70;51.80
3198;DHT22;1611;49.394;11.136;2023-11-18T11:00:46;9.60;52.20
3198;DHT22;1611;49.394;11.136;2023-11-18T11:03:13;9.70;51.90
3198;DHT22;1611;49.394;11.136;2023-11-18T11:05:40;9.80;52.20
3198;DHT22;1611;49.394;11.136;2023-11-18T11:08:13;9.80;51.40
3198;DHT22;1611;49.394;11.136;2023-11-18T11:10:41;9.80;50.70
3198;DHT22;1611;49.394;11.136;2023-11-18T11:13:09;9.80;50.60
3198;DHT22;1611;49.394;11.136;2023-11-18T11:15:41;9.90;50.80
3198;DHT22;1611;49.394;11.136;2023-11-18T11:18:19;10.10;49.40
3198;DHT22;1611;49.394;11.136;2023-11-18T11:20:57;10.10;49.00
3198;DHT22;1611;49.394;11.136;2023-11-18T11:23:39;10.10;49.50
3198;DHT22;1611;49.394;11.136;2023-11-18T11:26:18;10.00;50.00
3198;DHT22;1611;49.394;11.136;2023-11-18T11:28:55;10.00;49.90
3198;DHT22;1611;49.394;11.136;2023-11-18T11:31:31;10.00;49.80
3198;DHT22;1611;49.394;11.136;2023-11-18T11:34:02;9.90;49.30
3198;DHT22;1611;49.394;11.136;2023-11-18T11:36:36;10.00;50.00
3198;DHT22;1611;49.394;11.136;2023-11-18T11:39:06;10.00;48.20
3198;DHT22;1611;49.394;11.136;2023-11-18T11:41:43;10.10;48.10
3198;DHT22;1611;49.394;11.136;2023-11-18T11:44:12;10.00;48.20
3198;DHT22;1611;49.394;11.136;2023-11-18T11:46:40;10.00;49.30
3198;DHT22;1611;49.394;11.136;2023-11-18T11:49:09;10.00;48.70
3198;DHT22;1611;49.394;11.136;2023-11-18T11:51:45;10.10;49.80
3198;DHT22;1611;49.394;11.136;2023-11-18T11:54:21;10.00;50.80
3198;DHT22;1611;49.394;11.136;2023-11-18T11:56:49;10.00;50.80
3198;DHT22;1611;49.394;11.136;2023-11-18T11:59:35;10.00;49.70
3198;DHT22;1611;49.394;11.136;2023-11-18T12:02:03;9.90;48.50
3198;DHT22;1611;49.394;11.136;2023-11-18T12:04:33;9.90;48.60
3198;DHT22;1611;49.394;11.136;2023-11-18T12:07:03;9.90;48.80
3198;DHT22;1611;49.394;11.136;2023-11-18T12:09:32;9.90;48.90
3198;DHT22;1611;49.394;11.136;2023-11-18T12:12:04;9.90;48.70
3198;DHT22;1611;49.394;11.136;2023-11-18T12:14:49;9.90;48.80
3198;DHT22;1611;49.394;11.136;2023-11-18T12:17:16;9.90;47.80
3198;DHT22;1611;49.394;11.136;2023-11-18T12:19:48;10.10;46.30
3198;DHT22;1611;49.394;11.136;2023-11-18T12:22:16;10.30;46.00
3198;DHT22;1611;49.394;11.136;2023-11-18T12:28:10;10.40;44.60
3198;DHT22;1611;49.394;11.136;2023-11-18T12:30:44;10.50;44.80
3198;DHT22;1611;49.394;11.136;2023-11-18T12:33:23;10.60;44.80
3198;DHT22;1611;49.394;11.136;2023-11-18T12:36:37;10.60;43.80
3198;DHT22;1611;49.394;11.136;2023-11-18T12:39:31;10.50;41.10
3198;DHT22;1611;49.394;11.136;2023-11-18T12:42:07;10.50;42.50
3198;DHT22;1611;49.394;11.136;2023-11-18T12:47:36;10.50;42.60
3198;DHT22;1611;49.394;11.136;2023-11-18T12:50:08;10.50;43.60
3198;DHT22;1611;49.394;11.136;2023-11-18T12:52:42;10.50;44.80
3198;DHT22;1611;49.394;11.136;2023-11-18T12:55:11;10.50;43.30
3198;DHT22;1611;49.394;11.136;2023-11-18T12:57:46;10.40;42.40
3198;DHT22;1611;49.394;11.136;2023-11-18T13:00:16;10.50;40.80
3198;DHT22;1611;49.394;11.136;2023-11-18T13:02:52;10.30;38.00
3198;DHT22;1611;49.394;11.136;2023-11-18T13:05:19;10.20;40.40
3198;DHT22;1611;49.394;11.136;2023-11-18T13:07:46;10.10;40.40
3198;DHT22;1611;49.394;11.136;2023-11-18T13:10:14;10.00;40.80
3198;DHT22;1611;49.394;11.136;2023-11-18T13:12:41;9.90;41.50
3198;DHT22;1611;49.394;11.136;2023-11-18T13:15:08;10.00;43.10
3198;DHT22;1611;49.394;11.136;2023-11-18T13:17:36;10.10;42.20
3198;DHT22;1611;49.394;11.136;2023-11-18T13:20:11;10.20;42.20
3198;DHT22;1611;49.394;11.136;2023-11-18T13:22:41;10.30;43.50
3198;DHT22;1611;49.394;11.136;2023-11-18T13:25:08;10.20;43.00
3198;DHT22;1611;49.394;11.136;2023-11-18T13:27:35;10.30;43.90
3198;DHT22;1611;49.394;11.136;2023-11-18T13:30:04;10.30;44.10
3198;DHT22;1611;49.394;11.136;2023-11-18T13:32:37;10.30;43.00
3198;DHT22;1611;49.394;11.136;2023-11-18T13:35:06;10.30;43.90
3198;DHT22;1611;49.394;11.136;2023-11-18T13:37:33;10.20;44.30
3198;DHT22;1611;49.394;11.136;2023-11-18T13:40:00;10.20;44.60
3198;DHT22;1611;49.394;11.136;2023-11-18T13:42:31;10.00;43.70
3198;DHT22;1611;49.394;11.136;2023-11-18T13:45:02;10.10;44.40
3198;DHT22;1611;49.394;11.136;2023-11-18T13:47:33;10.00;44.80
3198;DHT22;1611;49.394;11.136;2023-11-18T13:50:05;10.00;45.70
3198;DHT22;1611;49.394;11.136;2023-11-18T13:52:32;10.00;45.80
3198;DHT22;1611;49.394;11.136;2023-11-18T13:54:59;10.00;45.60
3198;DHT22;1611;49.394;11.136;2023-11-18T13:57:26;9.90;46.30
3198;DHT22;1611;49.394;11.136;2023-11-18T13:59:53;9.90;46.30
3198;DHT22;1611;49.394;11.136;2023-11-18T14:02:20;9.70;46.70
3198;DHT22;1611;49.394;11.136;2023-11-18T14:04:47;9.70;47.20
3198;DHT22;1611;49.394;11.136;2023-11-18T14:07:17;9.70;47.90
3198;DHT22;1611;49.394;11.136;2023-11-18T14:09:44;9.70;48.20
3198;DHT22;1611;49.394;11.136;2023-11-18T14:12:12;9.60;48.20
3198;DHT22;1611;49.394;11.136;2023-11-18T14:14:39;9.60;49.70
3198;DHT22;1611;49.394;11.136;2023-11-18T14:17:07;9.60;50.50
3198;DHT22;1611;49.394;11.136;2023-11-18T14:19:35;9.50;49.70
3198;DHT22;1611;49.394;11.136;2023-11-18T14:22:03;9.60;49.70
3198;DHT22;1611;49.394;11.136;2023-11-18T14:24:33;9.50;50.40
3198;DHT22;1611;49.394;11.136;2023-11-18T14:27:00;9.50;51.20
3198;DHT22;1611;49.394;11.136;2023-11-18T14:29:26;9.40;52.10
3198;DHT22;1611;49.394;11.136;2023-11-18T14:31:54;9.30;52.70
3198;DHT22;1611;49.394;11.136;2023-11-18T14:34:20;9.30;52.60
3198;DHT22;1611;49.394;11.136;2023-11-18T14:36:47;9.30;53.40
3198;DHT22;1611;49.394;11.136;2023-11-18T14:39:14;9.30;54.30
3198;DHT22;1611;49.394;11.136;2023-11-18T14:41:45;9.20;55.30
3198;DHT22;1611;49.394;11.136;2023-11-18T14:44:12;9.20;55.80
3198;DHT22;1611;49.394;11.136;2023-11-18T14:46:39;9.10;56.10
3198;DHT22;1611;49.394;11.136;2023-11-18T14:49:06;9.00;56.40
3198;DHT22;1611;49.394;11.136;2023-11-18T14:51:33;8.90;56.30
3198;DHT22;1611;49.394;11.136;2023-11-18T14:54:01;8.90;56.60
3198;DHT22;1611;49.394;11.136;2023-11-18T14:56:28;8.80;57.30
3198;DHT22;1611;49.394;11.136;2023-11-18T14:58:56;8.80;57.50
3198;DHT22;1611;49.394;11.136;2023-11-18T15:01:23;8.80;57.50
3198;DHT22;1611;49.394;11.136;2023-11-18T15:03:51;8.70;57.60
3198;DHT22;1611;49.394;11.136;2023-11-18T15:06:24;8.70;58.10
3198;DHT22;1611;49.394;11.136;2023-11-18T15:08:51;8.60;58.70
3198;DHT22;1611;49.394;11.136;2023-11-18T15:11:21;8.70;59.40
3198;DHT22;1611;49.394;11.136;2023-11-18T15:13:48;8.50;59.30
3198;DHT22;1611;49.394;11.136;2023-11-18T15:16:16;8.40;60.00
3198;DHT22;1611;49.394;11.136;2023-11-18T15:18:44;8.40;60.20
3198;DHT22;1611;49.394;11.136;2023-11-18T15:21:12;8.40;60.40
3198;DHT22;1611;49.394;11.136;2023-11-18T15:23:40;8.40;61.80
3198;DHT22;1611;49.394;11.136;2023-11-18T15:26:08;8.40;61.00
3198;DHT22;1611;49.394;11.136;2023-11-18T15:28:35;8.30;60.90
3198;DHT22;1611;49.394;11.136;2023-11-18T15:31:02;8.30;61.30
3198;DHT22;1611;49.394;11.136;2023-11-18T15:33:30;8.20;61.40
3198;DHT22;1611;49.394;11.136;2023-11-18T15:35:57;8.20;61.60
3198;DHT22;1611;49.394;11.136;2023-11-18T15:38:24;8.10;61.80
3198;DHT22;1611;49.394;11.136;2023-11-18T15:40:50;8.00;61.80
3198;DHT22;1611;49.394;11.136;2023-11-18T15:43:17;8.10;61.80
3198;DHT22;1611;49.394;11.136;2023-11-18T15:45:44;8.10;61.70
3198;DHT22;1611;49.394;11.136;2023-11-18T15:48:11;8.00;62.00
3198;DHT22;1611;49.394;11.136;2023-11-18T15:50:41;8.00;62.40
3198;DHT22;1611;49.394;11.136;2023-11-18T15:53:08;8.00;62.80
3198;DHT22;1611;49.394;11.136;2023-11-18T15:55:38;8.00;62.90
3198;DHT22;1611;49.394;11.136;2023-11-18T15:58:07;7.90;62.70
3198;DHT22;1611;49.394;11.136;2023-11-18T16:00:35;8.10;62.80
3198;DHT22;1611;49.394;11.136;2023-11-18T16:03:02;8.10;63.10
3198;DHT22;1611;49.394;11.136;2023-11-18T16:05:30;7.90;63.30
3198;DHT22;1611;49.394;11.136;2023-11-18T16:08:00;7.90;62.90
3198;DHT22;1611;49.394;11.136;2023-11-18T16:10:27;7.90;63.40
3198;DHT22;1611;49.394;11.136;2023-11-18T16:12:55;7.90;63.40
3198;DHT22;1611;49.394;11.136;2023-11-18T16:15:23;7.90;63.90
3198;DHT22;1611;49.394;11.136;2023-11-18T16:17:51;7.80;63.80
3198;DHT22;1611;49.394;11.136;2023-11-18T16:20:20;7.70;64.20